This is the latest recevied weather packets stored in our database for station/object VE7GEL. If no packets are shown the sender has not sent any weather packets the latest 10 day(s).
| Time | Temp. | Humidity | Pressure | Rain* | Wind** | Luminosity | Snow |
|---|---|---|---|---|---|---|---|
| 1777696509 | 15.56° C | 60% | 1015.3 hPa | 0 mm | - | 0 W/m² | - |
| 1777695605 | 15.56° C | 61% | 1015 hPa | 0 mm | - | 0 W/m² | - |
| 1777695302 | 15.56° C | 60% | 1015.3 hPa | 0 mm | - | 0 W/m² | - |
| 1777694705 | 15.56° C | 59% | 1014.9 hPa | 0 mm | - | 0 W/m² | - |
| 1777693804 | 16.11° C | 57% | 1014.7 hPa | 0 mm | - | 0 W/m² | - |
| 1777692904 | 16.11° C | 60% | 1014.7 hPa | 0 mm | - | 0 W/m² | - |
| 1777692002 | 15.56° C | 56% | 1014.5 hPa | 0 mm | - | 4 W/m² | - |
| 1777691703 | 15.56° C | 58% | 1014.8 hPa | 0 mm | - | 6 W/m² | - |
| 1777691101 | 16.11° C | 61% | 1014.5 hPa | 0 mm | - | 9 W/m² | - |
| 1777690201 | 16.67° C | 60% | 1014.4 hPa | 0 mm | - | 22 W/m² | - |
| 1777689299 | 17.22° C | 60% | 1014.4 hPa | 0 mm | - | 27 W/m² | - |
| 1777688401 | 17.22° C | 59% | 1014.4 hPa | 0 mm | - | 84 W/m² | - |
| 1777687501 | 17.78° C | 61% | 1014.5 hPa | 0 mm | - | 135 W/m² | - |
| 1777686601 | 18.33° C | 58% | 1014.6 hPa | 0 mm | - | 154 W/m² | - |
| 1777686303 | 18.33° C | 58% | 1015 hPa | 0 mm | - | 187 W/m² | - |
| 1777685702 | 18.33° C | 57% | 1014.7 hPa | 0 mm | - | 127 W/m² | - |
| 1777684798 | 17.78° C | 61% | 1014.8 hPa | 0 mm | - | 244 W/m² | - |
| 1777683899 | 18.33° C | 60% | 1015 hPa | 0 mm | - | 343 W/m² | - |
| 1777683000 | 17.78° C | 61% | 1015 hPa | 0 mm | - | 329 W/m² | - |
| 1777682702 | 17.22° C | 62% | 1015.3 hPa | 0 mm | - | 287 W/m² | - |
| 1777682097 | 17.22° C | 65% | 1014.9 hPa | 0 mm | - | 244 W/m² | - |
| 1777681193 | 17.78° C | 61% | 1015.1 hPa | 0 mm | - | 320 W/m² | - |
| 1777680903 | 17.78° C | 60% | 1015.4 hPa | 0 mm | - | 474 W/m² | - |
| 1777680294 | 17.22° C | 63% | 1015.1 hPa | 0 mm | - | 369 W/m² | - |
| 1777679393 | 16.67° C | 68% | 1015.2 hPa | 0 mm | - | 454 W/m² | - |
* Rain latest hour (hover to see other rain measurements)
** Current wind speed in m/s (hover to see current wind gust speed)